createdAt,value
2023-05-21T00:02:17.349Z,91.58
2023-05-21T00:04:44.888Z,91.78
2023-05-21T00:07:12.660Z,91.79
2023-05-21T00:09:39.116Z,91.87
2023-05-21T00:12:06.601Z,92.56
2023-05-21T00:14:33.170Z,91.93
2023-05-21T00:16:59.617Z,92.18
2023-05-21T00:19:27.139Z,91.35
2023-05-21T00:21:54.774Z,92.17
2023-05-21T00:24:21.316Z,90.70
2023-05-21T00:26:47.803Z,91.39
2023-05-21T00:29:14.416Z,92.11
2023-05-21T00:31:41.014Z,92.42
2023-05-21T00:34:07.566Z,91.11
2023-05-21T00:36:34.785Z,92.44
2023-05-21T00:39:02.373Z,92.12
2023-05-21T00:41:30.161Z,92.69
2023-05-21T00:43:57.225Z,93.19
2023-05-21T00:46:24.024Z,92.00
2023-05-21T00:48:51.164Z,91.23
2023-05-21T00:51:18.703Z,92.26
2023-05-21T00:53:46.620Z,92.87
2023-05-21T00:56:13.692Z,92.52
2023-05-21T00:58:40.984Z,91.40
2023-05-21T01:01:13.849Z,90.89
2023-05-21T01:03:41.011Z,92.22
2023-05-21T01:06:09.704Z,91.74
2023-05-21T01:08:40.684Z,91.96
2023-05-21T01:11:08.010Z,93.24
2023-05-21T01:13:38.595Z,94.06
2023-05-21T01:16:08.995Z,94.64
2023-05-21T01:18:37.786Z,93.75
2023-05-21T01:21:05.407Z,93.40
2023-05-21T01:23:32.060Z,93.63
2023-05-21T01:25:58.542Z,93.89
2023-05-21T01:28:25.066Z,94.65
2023-05-21T01:30:51.904Z,93.06
2023-05-21T01:33:26.034Z,92.92
2023-05-21T01:36:09.384Z,92.44
2023-05-21T01:38:42.700Z,92.99
2023-05-21T01:41:14.117Z,92.55
2023-05-21T01:43:43.994Z,93.21
2023-05-21T01:46:16.946Z,93.91
2023-05-21T01:48:44.505Z,94.32
2023-05-21T01:51:11.875Z,95.15
2023-05-21T01:57:59.061Z,96.11
2023-05-21T02:00:29.349Z,96.59
2023-05-21T02:02:55.920Z,96.10
2023-05-21T02:05:22.464Z,96.95
2023-05-21T02:07:51.959Z,96.67
2023-05-21T02:10:19.140Z,96.12
2023-05-21T02:12:46.008Z,96.08
2023-05-21T02:15:14.252Z,96.55
2023-05-21T02:17:42.516Z,97.22
2023-05-21T02:20:11.930Z,97.94
2023-05-21T02:22:39.866Z,98.63
2023-05-21T02:25:07.932Z,97.08
2023-05-21T02:27:36.729Z,97.22
2023-05-21T02:30:05.984Z,96.01
2023-05-21T02:32:32.767Z,96.64
2023-05-21T02:34:59.569Z,96.35
2023-05-21T02:37:29.871Z,96.07
2023-05-21T02:39:56.723Z,95.53
2023-05-21T02:42:23.825Z,95.40
2023-05-21T02:44:51.331Z,96.23
2023-05-21T02:47:19.710Z,98.26
2023-05-21T02:49:46.921Z,97.49
2023-05-21T02:52:13.696Z,97.52
2023-05-21T02:54:40.166Z,98.03
2023-05-21T02:57:06.676Z,98.75
2023-05-21T02:59:33.183Z,99.50
2023-05-21T03:02:00.427Z,100.00
2023-05-21T03:04:28.375Z,100.00
2023-05-21T03:06:56.513Z,100.00
2023-05-21T03:09:23.017Z,100.00
2023-05-21T03:11:50.349Z,100.00
2023-05-21T03:14:16.850Z,100.00
2023-05-21T03:16:43.833Z,100.00
2023-05-21T03:19:11.508Z,100.00
2023-05-21T03:21:38.268Z,100.00
2023-05-21T03:24:06.864Z,100.00
2023-05-21T03:26:33.706Z,100.00
2023-05-21T03:29:00.286Z,100.00
2023-05-21T03:31:27.754Z,100.00
2023-05-21T03:34:08.577Z,100.00
2023-05-21T03:36:35.099Z,100.00
2023-05-21T03:39:03.567Z,100.00
2023-05-21T03:41:32.887Z,100.00
2023-05-21T03:44:06.302Z,100.00
2023-05-21T03:46:45.628Z,100.00
2023-05-21T03:49:20.518Z,100.00
2023-05-21T03:51:49.516Z,100.00
2023-05-21T03:54:17.728Z,100.00
2023-05-21T03:56:44.611Z,100.00
2023-05-21T03:59:11.461Z,100.00
2023-05-21T04:01:39.055Z,100.00
2023-05-21T04:04:07.945Z,100.00
2023-05-21T04:06:34.481Z,100.00
2023-05-21T04:09:01.178Z,100.00
2023-05-21T04:11:27.700Z,100.00
2023-05-21T04:13:54.150Z,100.00
2023-05-21T04:16:20.641Z,100.00
2023-05-21T04:18:47.360Z,100.00
2023-05-21T04:21:15.423Z,100.00
2023-05-21T04:23:41.874Z,100.00
2023-05-21T04:26:17.850Z,100.00
2023-05-21T04:28:45.977Z,100.00
2023-05-21T04:31:14.229Z,100.00
2023-05-21T04:33:42.189Z,100.00
2023-05-21T04:36:11.674Z,100.00
2023-05-21T04:38:39.816Z,100.00
2023-05-21T04:41:06.915Z,100.00
2023-05-21T04:43:33.456Z,100.00
2023-05-21T04:46:00.008Z,100.00
2023-05-21T04:48:29.426Z,100.00
2023-05-21T04:50:56.756Z,100.00
2023-05-21T04:53:25.864Z,100.00
2023-05-21T04:55:52.439Z,100.00
2023-05-21T04:58:19.517Z,100.00
2023-05-21T05:00:46.936Z,100.00
2023-05-21T05:03:13.885Z,100.00
2023-05-21T05:05:40.805Z,100.00
2023-05-21T05:08:07.678Z,100.00
2023-05-21T05:10:34.162Z,100.00
2023-05-21T05:13:00.766Z,100.00
2023-05-21T05:15:28.871Z,100.00
2023-05-21T05:17:56.621Z,100.00
2023-05-21T05:20:23.160Z,100.00
2023-05-21T05:22:50.469Z,100.00
2023-05-21T05:25:17.260Z,99.91
2023-05-21T05:27:44.766Z,99.39
2023-05-21T05:30:11.693Z,99.54
2023-05-21T05:32:38.340Z,99.22
2023-05-21T05:35:05.533Z,99.18
2023-05-21T05:37:32.780Z,99.11
2023-05-21T05:39:59.348Z,98.77
2023-05-21T05:42:27.050Z,98.50
2023-05-21T05:44:53.780Z,98.04
2023-05-21T05:47:21.757Z,97.86
2023-05-21T05:49:48.688Z,98.38
2023-05-21T05:52:15.302Z,96.96
2023-05-21T05:54:41.746Z,97.59
2023-05-21T05:57:08.842Z,96.69
2023-05-21T05:59:35.972Z,96.84
2023-05-21T06:02:03.012Z,96.65
2023-05-21T06:04:30.002Z,96.45
2023-05-21T06:07:00.525Z,97.11
2023-05-21T06:09:27.015Z,97.57
2023-05-21T06:11:53.479Z,96.71
2023-05-21T06:14:19.956Z,96.19
2023-05-21T06:16:46.481Z,95.36
2023-05-21T06:19:13.010Z,95.78
2023-05-21T06:21:39.532Z,96.44
2023-05-21T06:24:07.154Z,96.43
2023-05-21T06:26:33.777Z,95.06
2023-05-21T06:29:01.263Z,95.70
2023-05-21T06:31:28.691Z,95.47
2023-05-21T06:33:55.346Z,94.82
2023-05-21T06:36:22.071Z,94.74
2023-05-21T06:38:48.931Z,94.03
2023-05-21T06:41:15.453Z,92.73
2023-05-21T06:43:48.875Z,91.23
2023-05-21T06:46:38.510Z,89.98
2023-05-21T06:49:07.935Z,89.20
2023-05-21T06:51:34.749Z,87.43
2023-05-21T06:54:02.473Z,86.90
2023-05-21T06:56:29.042Z,85.97
2023-05-21T06:58:55.577Z,84.86
2023-05-21T07:01:23.447Z,83.39
2023-05-21T07:03:50.008Z,81.89
2023-05-21T07:06:16.894Z,79.70
2023-05-21T07:08:43.497Z,79.31
2023-05-21T07:11:10.122Z,78.18
2023-05-21T07:13:37.169Z,77.26
2023-05-21T07:16:03.792Z,77.64
2023-05-21T07:18:31.234Z,75.89
2023-05-21T07:20:57.804Z,75.64
2023-05-21T07:23:25.036Z,75.14
2023-05-21T07:25:51.592Z,74.09
2023-05-21T07:28:18.994Z,72.92
2023-05-21T07:30:45.491Z,72.62
2023-05-21T07:33:16.341Z,71.72
2023-05-21T07:35:43.959Z,71.48
2023-05-21T07:38:10.482Z,70.28
2023-05-21T07:40:37.181Z,69.69
2023-05-21T07:43:04.186Z,69.85
2023-05-21T07:45:32.068Z,68.90
2023-05-21T07:47:58.828Z,68.38
2023-05-21T07:50:26.434Z,68.84
2023-05-21T07:52:52.952Z,67.72
2023-05-21T07:55:20.202Z,66.29
2023-05-21T07:57:47.097Z,66.55
2023-05-21T08:00:16.194Z,65.99
2023-05-21T08:02:47.276Z,66.23
2023-05-21T08:05:16.367Z,66.73
2023-05-21T08:07:43.726Z,65.80
2023-05-21T08:10:10.481Z,64.88
2023-05-21T08:12:37.134Z,65.23
2023-05-21T08:15:05.075Z,63.11
2023-05-21T08:17:33.686Z,63.92
2023-05-21T08:20:00.480Z,62.47
2023-05-21T08:22:27.434Z,61.81
2023-05-21T08:24:54.499Z,60.86
2023-05-21T08:27:21.310Z,61.99
2023-05-21T08:29:48.050Z,62.33
2023-05-21T08:32:15.271Z,61.41
2023-05-21T08:34:42.200Z,61.56
2023-05-21T08:37:36.749Z,61.58
2023-05-21T08:40:12.638Z,61.34
2023-05-21T08:42:49.304Z,61.76
2023-05-21T08:45:26.681Z,60.46
2023-05-21T08:47:58.460Z,60.67
2023-05-21T08:50:28.288Z,60.72
2023-05-21T08:52:58.970Z,60.59
2023-05-21T08:55:26.804Z,60.44
2023-05-21T08:57:54.763Z,58.85
2023-05-21T09:00:22.843Z,59.31
2023-05-21T09:02:51.146Z,57.06
2023-05-21T09:05:19.161Z,58.53
2023-05-21T09:07:55.083Z,58.49
2023-05-21T09:11:01.359Z,57.86
2023-05-21T09:13:33.367Z,57.44
2023-05-21T09:16:04.173Z,59.19
2023-05-21T09:18:30.849Z,57.25
2023-05-21T09:21:27.376Z,55.73
2023-05-21T09:23:59.390Z,56.05
2023-05-21T09:26:26.655Z,56.00
2023-05-21T09:28:57.989Z,56.27
2023-05-21T09:31:25.930Z,56.31
2023-05-21T09:33:53.220Z,55.30
2023-05-21T09:36:21.869Z,55.75
2023-05-21T09:38:50.147Z,56.23
2023-05-21T09:41:21.244Z,56.15
2023-05-21T09:43:48.807Z,56.44
2023-05-21T09:46:16.032Z,54.15
2023-05-21T09:48:43.540Z,53.76
2023-05-21T09:51:16.526Z,52.31
2023-05-21T09:53:50.277Z,53.02
2023-05-21T09:56:18.952Z,52.72
2023-05-21T09:58:46.198Z,53.43
2023-05-21T10:01:13.418Z,52.58
2023-05-21T10:03:43.170Z,52.51
2023-05-21T10:06:11.600Z,51.85
2023-05-21T10:08:44.512Z,51.74
2023-05-21T10:11:11.901Z,51.92
2023-05-21T10:13:44.702Z,51.67
2023-05-21T10:16:11.384Z,51.65
2023-05-21T10:18:39.002Z,50.26
2023-05-21T10:21:07.192Z,50.27
2023-05-21T10:23:36.242Z,50.38
2023-05-21T10:26:04.085Z,50.46
2023-05-21T10:28:31.613Z,50.64
2023-05-21T10:30:58.712Z,50.32
2023-05-21T10:33:26.750Z,49.86
2023-05-21T10:35:54.416Z,49.42
2023-05-21T10:38:21.166Z,48.06
2023-05-21T10:40:49.011Z,48.98
2023-05-21T10:43:38.828Z,48.91
2023-05-21T10:46:19.562Z,49.12
2023-05-21T10:49:07.986Z,48.63
2023-05-21T10:52:07.234Z,48.07
2023-05-21T10:54:54.802Z,47.56
2023-05-21T10:57:39.930Z,47.19
2023-05-21T11:00:09.502Z,46.48
2023-05-21T11:02:36.833Z,45.62
2023-05-21T11:05:04.494Z,45.81
2023-05-21T11:08:01.486Z,44.25
2023-05-21T11:10:40.508Z,44.59
2023-05-21T11:13:16.976Z,44.59
2023-05-21T11:15:58.469Z,45.00
2023-05-21T11:18:30.899Z,44.29
2023-05-21T11:21:04.730Z,43.46
2023-05-21T11:23:53.571Z,42.79
2023-05-21T11:26:22.494Z,42.85
2023-05-21T11:29:03.987Z,43.64
2023-05-21T11:31:38.588Z,43.97
2023-05-21T11:34:11.678Z,43.27
2023-05-21T11:36:39.497Z,43.28
2023-05-21T11:39:15.297Z,43.28
2023-05-21T11:41:58.326Z,43.83
2023-05-21T11:44:47.518Z,43.95
2023-05-21T11:47:19.099Z,44.51
2023-05-21T11:49:46.576Z,43.93
2023-05-21T11:52:14.077Z,44.21
2023-05-21T11:54:46.102Z,43.42
2023-05-21T11:57:17.398Z,42.99
2023-05-21T11:59:44.449Z,43.35
2023-05-21T12:02:17.875Z,44.00
2023-05-21T12:04:46.494Z,43.84
2023-05-21T12:07:15.041Z,43.66
2023-05-21T12:09:46.783Z,43.64
2023-05-21T12:12:16.455Z,42.95
2023-05-21T12:14:48.012Z,43.49
2023-05-21T12:17:25.240Z,43.41
2023-05-21T12:19:55.043Z,42.84
2023-05-21T12:22:23.470Z,43.17
2023-05-21T12:24:50.373Z,42.77
2023-05-21T12:27:18.183Z,42.69
2023-05-21T12:29:46.428Z,42.40
2023-05-21T12:32:14.669Z,42.32
2023-05-21T12:34:46.569Z,42.20
2023-05-21T12:37:15.995Z,42.65
2023-05-21T12:39:46.757Z,42.37
2023-05-21T12:42:13.933Z,42.75
2023-05-21T12:44:47.534Z,41.86
2023-05-21T12:47:14.420Z,42.10
2023-05-21T12:49:46.398Z,42.44
2023-05-21T12:52:13.429Z,42.78
2023-05-21T12:54:41.886Z,42.96
2023-05-21T12:57:14.167Z,42.67
2023-05-21T12:59:57.508Z,42.53
2023-05-21T13:02:27.736Z,42.66
2023-05-21T13:04:58.977Z,42.09
2023-05-21T13:07:26.839Z,42.15
2023-05-21T13:09:54.335Z,42.15
2023-05-21T13:12:22.337Z,42.63
2023-05-21T13:14:52.897Z,42.72
2023-05-21T13:17:20.053Z,42.25
2023-05-21T13:20:12.256Z,42.32
2023-05-21T13:22:42.642Z,42.52
2023-05-21T13:25:11.152Z,42.81
2023-05-21T13:27:39.612Z,42.97
2023-05-21T13:30:07.476Z,43.00
2023-05-21T13:32:34.350Z,42.51
2023-05-21T13:35:00.909Z,43.23
2023-05-21T13:37:27.877Z,43.14
2023-05-21T13:39:54.364Z,43.48
2023-05-21T13:42:21.246Z,43.45
2023-05-21T13:44:48.004Z,43.00
2023-05-21T13:47:14.589Z,42.43
2023-05-21T13:49:41.133Z,42.69
2023-05-21T13:52:08.669Z,43.09
2023-05-21T13:54:36.099Z,42.32
2023-05-21T13:57:03.358Z,42.52
2023-05-21T13:59:31.933Z,42.97
2023-05-21T14:01:59.857Z,43.28
2023-05-21T14:04:26.384Z,43.25
2023-05-21T14:06:53.087Z,43.46
2023-05-21T14:09:19.534Z,42.92
2023-05-21T14:11:46.352Z,43.27
2023-05-21T14:14:18.689Z,42.32
2023-05-21T14:16:48.867Z,42.42
2023-05-21T14:19:15.986Z,42.51
2023-05-21T14:21:43.111Z,43.46
2023-05-21T14:24:09.699Z,43.05
2023-05-21T14:26:39.963Z,43.01
2023-05-21T14:29:06.571Z,42.27
2023-05-21T14:31:33.047Z,42.52
2023-05-21T14:33:59.542Z,42.28
2023-05-21T14:36:25.992Z,41.92
2023-05-21T14:38:52.457Z,42.51
2023-05-21T14:41:18.909Z,43.26
2023-05-21T14:43:45.424Z,43.91
2023-05-21T14:46:12.013Z,43.59
2023-05-21T14:48:38.527Z,44.41
2023-05-21T14:51:05.031Z,45.09
2023-05-21T14:53:32.265Z,44.37
2023-05-21T14:55:58.845Z,44.02
2023-05-21T14:58:25.337Z,44.12
2023-05-21T15:00:51.819Z,44.49
2023-05-21T15:03:18.303Z,44.40
2023-05-21T15:05:44.792Z,44.00
2023-05-21T15:08:11.281Z,43.91
2023-05-21T15:10:37.843Z,44.07
2023-05-21T15:13:04.328Z,44.15
2023-05-21T15:15:30.774Z,44.01
2023-05-21T15:17:57.989Z,43.82
2023-05-21T15:20:24.689Z,43.48
2023-05-21T15:22:53.492Z,44.22
2023-05-21T15:25:23.509Z,44.18
2023-05-21T15:27:50.586Z,44.03
2023-05-21T15:30:17.362Z,44.29
2023-05-21T15:32:43.884Z,44.70
2023-05-21T15:35:10.492Z,44.98
2023-05-21T15:37:37.138Z,45.25
2023-05-21T15:40:04.116Z,44.57
2023-05-21T15:42:31.811Z,45.02
2023-05-21T15:44:58.607Z,45.37
2023-05-21T15:47:25.117Z,44.89
2023-05-21T15:49:51.747Z,45.01
2023-05-21T15:52:19.798Z,45.22
2023-05-21T15:54:46.940Z,45.69
2023-05-21T15:57:13.405Z,44.82
2023-05-21T15:59:39.932Z,44.89
2023-05-21T16:02:06.375Z,45.16
2023-05-21T16:04:33.850Z,44.75
2023-05-21T16:07:00.517Z,45.40
2023-05-21T16:09:27.020Z,44.74
2023-05-21T16:11:53.480Z,44.50
2023-05-21T16:14:19.941Z,44.75
2023-05-21T16:16:46.485Z,44.66
2023-05-21T16:19:13.099Z,44.79
2023-05-21T16:21:39.600Z,44.64
2023-05-21T16:24:06.583Z,44.74
2023-05-21T16:26:33.034Z,44.67
2023-05-21T16:28:59.948Z,44.83
2023-05-21T16:31:26.482Z,44.93
2023-05-21T16:33:53.009Z,44.51
2023-05-21T16:36:19.500Z,44.72
2023-05-21T16:38:45.989Z,44.43
2023-05-21T16:41:12.617Z,44.17
2023-05-21T16:43:39.130Z,44.52
2023-05-21T16:46:05.944Z,44.93
2023-05-21T16:48:32.779Z,44.60
2023-05-21T16:50:59.686Z,44.52
2023-05-21T16:53:26.804Z,44.85
2023-05-21T16:55:53.294Z,44.57
2023-05-21T16:58:19.815Z,44.07
2023-05-21T17:00:46.459Z,44.28
2023-05-21T17:03:13.049Z,44.12
2023-05-21T17:05:39.629Z,44.30
2023-05-21T17:08:06.099Z,44.00
2023-05-21T17:10:32.994Z,44.19
2023-05-21T17:13:01.866Z,44.39
2023-05-21T17:15:33.270Z,44.46
2023-05-21T17:17:59.801Z,44.54
2023-05-21T17:20:26.460Z,44.85
2023-05-21T17:22:52.963Z,44.37
2023-05-21T17:25:19.574Z,44.69
2023-05-21T17:27:46.138Z,44.65
2023-05-21T17:30:12.938Z,45.11
2023-05-21T17:32:39.431Z,45.02
2023-05-21T17:35:06.453Z,45.65
2023-05-21T17:37:34.016Z,45.89
2023-05-21T17:40:00.523Z,45.45
2023-05-21T17:42:27.020Z,45.53
2023-05-21T17:44:54.272Z,45.36
2023-05-21T17:47:20.768Z,45.12
2023-05-21T17:49:47.263Z,45.68
2023-05-21T17:52:13.780Z,45.84
2023-05-21T17:54:40.345Z,45.58
2023-05-21T17:57:06.799Z,45.49
2023-05-21T17:59:33.274Z,45.42
2023-05-21T18:02:01.521Z,45.74
2023-05-21T18:04:28.151Z,46.02
2023-05-21T18:06:54.662Z,45.75
2023-05-21T18:09:21.134Z,45.70
2023-05-21T18:11:47.593Z,46.04
2023-05-21T18:14:14.178Z,45.84
2023-05-21T18:16:40.942Z,46.12
2023-05-21T18:19:07.588Z,45.82
2023-05-21T18:21:35.169Z,45.99
2023-05-21T18:24:02.916Z,45.71
2023-05-21T18:26:30.274Z,45.79
2023-05-21T18:28:57.922Z,46.26
2023-05-21T18:31:24.783Z,46.11
2023-05-21T18:33:52.043Z,46.33
2023-05-21T18:36:18.678Z,46.25
2023-05-21T18:38:45.299Z,45.96
2023-05-21T18:41:11.809Z,46.06
2023-05-21T18:43:38.298Z,46.06
2023-05-21T18:46:04.759Z,46.42
2023-05-21T18:48:31.209Z,46.34
2023-05-21T18:50:57.782Z,46.23
2023-05-21T18:53:24.328Z,46.65
2023-05-21T18:55:50.787Z,46.42
2023-05-21T18:58:17.282Z,46.81
2023-05-21T19:00:43.751Z,46.39
2023-05-21T19:03:11.123Z,46.61
2023-05-21T19:05:37.745Z,46.61
2023-05-21T19:08:04.562Z,46.69
2023-05-21T19:10:31.024Z,46.61
2023-05-21T19:12:57.500Z,46.51
2023-05-21T19:15:24.001Z,46.70
2023-05-21T19:17:50.584Z,46.54
2023-05-21T19:20:24.320Z,46.68
2023-05-21T19:22:51.198Z,46.79
2023-05-21T19:25:17.693Z,46.91
2023-05-21T19:27:44.522Z,47.02
2023-05-21T19:30:11.297Z,47.18
2023-05-21T19:32:37.763Z,46.88
2023-05-21T19:35:05.566Z,46.85
2023-05-21T19:37:32.012Z,47.14
2023-05-21T19:39:58.490Z,47.10
2023-05-21T19:42:24.970Z,47.40
2023-05-21T19:44:51.440Z,47.40
2023-05-21T19:47:17.901Z,47.54
2023-05-21T19:49:44.475Z,47.55
2023-05-21T19:52:12.056Z,47.65
2023-05-21T19:54:38.628Z,47.58
2023-05-21T19:57:05.823Z,47.50
2023-05-21T19:59:32.359Z,47.77
2023-05-21T20:01:58.856Z,47.40
2023-05-21T20:04:25.501Z,47.43
2023-05-21T20:06:52.074Z,47.51
2023-05-21T20:09:18.595Z,47.54
2023-05-21T20:11:45.144Z,47.37
2023-05-21T20:14:11.651Z,47.41
2023-05-21T20:16:38.211Z,47.68
2023-05-21T20:19:05.667Z,47.41
2023-05-21T20:21:32.175Z,47.30
2023-05-21T20:23:58.714Z,47.31
2023-05-21T20:26:26.152Z,47.04
2023-05-21T20:28:52.651Z,47.03
2023-05-21T20:31:19.410Z,47.13
2023-05-21T20:33:46.342Z,46.84
2023-05-21T20:36:15.113Z,46.59
2023-05-21T20:38:42.050Z,46.74
2023-05-21T20:41:08.688Z,46.78
2023-05-21T20:43:37.224Z,46.82
2023-05-21T20:46:05.691Z,46.97
2023-05-21T20:48:32.249Z,46.74
2023-05-21T20:50:59.833Z,47.05
2023-05-21T20:53:26.742Z,47.04
2023-05-21T20:55:54.745Z,46.76
2023-05-21T20:58:23.857Z,46.88
2023-05-21T21:00:50.464Z,46.84
2023-05-21T21:03:18.176Z,47.09
2023-05-21T21:05:44.843Z,46.93
2023-05-21T21:08:12.234Z,47.33
2023-05-21T21:10:41.310Z,47.17
2023-05-21T21:13:08.276Z,46.67
2023-05-21T21:15:35.390Z,46.83
2023-05-21T21:18:01.952Z,47.05
2023-05-21T21:20:28.458Z,47.48
2023-05-21T21:22:54.958Z,47.19
2023-05-21T21:25:21.547Z,47.03
2023-05-21T21:27:47.997Z,47.02
2023-05-21T21:30:14.532Z,47.15
2023-05-21T21:32:41.222Z,47.16
2023-05-21T21:35:08.049Z,47.36
2023-05-21T21:37:34.607Z,47.33
2023-05-21T21:40:01.052Z,47.65
2023-05-21T21:42:27.546Z,47.43
2023-05-21T21:44:54.006Z,47.68
2023-05-21T21:47:20.465Z,47.58
2023-05-21T21:49:48.031Z,48.04
2023-05-21T21:52:14.702Z,47.79
2023-05-21T21:54:41.241Z,48.00
2023-05-21T21:57:07.696Z,48.27
2023-05-21T21:59:34.386Z,48.15
2023-05-21T22:02:01.060Z,48.28
2023-05-21T22:04:27.545Z,48.33
2023-05-21T22:06:54.052Z,48.64
2023-05-21T22:09:22.504Z,48.85
2023-05-21T22:11:49.165Z,48.63
2023-05-21T22:14:15.898Z,49.06
2023-05-21T22:16:43.265Z,49.06
2023-05-21T22:19:10.177Z,49.00
2023-05-21T22:21:36.821Z,49.55
2023-05-21T22:24:04.020Z,49.54
2023-05-21T22:26:30.537Z,49.74
2023-05-21T22:28:59.059Z,50.13
2023-05-21T22:31:26.729Z,50.01
2023-05-21T22:33:53.287Z,50.27
2023-05-21T22:36:19.740Z,50.30
2023-05-21T22:38:46.255Z,50.52
2023-05-21T22:41:12.721Z,50.32
2023-05-21T22:43:39.262Z,50.49
2023-05-21T22:46:05.824Z,50.54
2023-05-21T22:48:34.323Z,50.51
2023-05-21T22:51:01.831Z,50.82
2023-05-21T22:53:28.426Z,51.20
2023-05-21T22:55:54.897Z,50.94
2023-05-21T22:58:21.381Z,50.73
2023-05-21T23:00:48.094Z,50.92
2023-05-21T23:03:14.773Z,51.22
2023-05-21T23:05:41.371Z,51.36
2023-05-21T23:08:07.875Z,51.13
2023-05-21T23:10:35.399Z,51.37
2023-05-21T23:13:02.085Z,51.38
2023-05-21T23:15:29.527Z,51.53
2023-05-21T23:17:56.758Z,51.56
2023-05-21T23:20:24.532Z,51.63
2023-05-21T23:22:51.032Z,51.74
2023-05-21T23:25:17.818Z,52.08
2023-05-21T23:27:44.368Z,52.21
2023-05-21T23:30:11.954Z,52.38
2023-05-21T23:32:38.686Z,52.00
2023-05-21T23:35:05.648Z,52.04
2023-05-21T23:37:32.117Z,52.27
2023-05-21T23:39:58.583Z,52.63
2023-05-21T23:42:25.065Z,52.49
2023-05-21T23:44:51.527Z,52.77
2023-05-21T23:47:18.076Z,52.51
2023-05-21T23:49:44.619Z,52.48
2023-05-21T23:52:13.052Z,52.81
2023-05-21T23:54:39.545Z,53.17
2023-05-21T23:57:06.315Z,52.57
2023-05-21T23:59:32.833Z,52.91
